createdAt,value
2019-04-23T00:00:20.259Z,16.83
2019-04-23T00:02:58.609Z,16.00
2019-04-23T00:08:07.854Z,22.93
2019-04-23T00:10:29.388Z,14.67
2019-04-23T00:12:59.383Z,20.67
2019-04-23T00:16:00.442Z,18.97
2019-04-23T00:18:26.526Z,22.10
2019-04-23T00:20:47.774Z,16.40
2019-04-23T00:23:16.347Z,19.43
2019-04-23T00:26:05.785Z,21.57
2019-04-23T00:28:38.932Z,14.60
2019-04-23T00:31:12.260Z,18.23
2019-04-23T00:33:30.346Z,18.03
2019-04-23T00:36:03.159Z,22.20
2019-04-23T00:38:33.569Z,15.97
2019-04-23T00:41:02.840Z,20.63
2019-04-23T00:43:52.768Z,19.07
2019-04-23T00:45:54.559Z,20.37
2019-04-23T00:51:13.832Z,14.23
2019-04-23T00:53:29.089Z,17.20
2019-04-23T01:01:13.212Z,12.20
2019-04-23T01:03:41.646Z,18.30
2019-04-23T01:05:52.383Z,15.40
2019-04-23T01:08:26.426Z,16.00
2019-04-23T01:11:10.671Z,21.20
2019-04-23T01:13:39.378Z,13.63
2019-04-23T01:16:07.270Z,16.47
2019-04-23T01:18:51.345Z,18.87
2019-04-23T01:21:05.624Z,20.40
2019-04-23T01:23:53.880Z,19.83
2019-04-23T01:26:38.852Z,18.57
2019-04-23T01:29:06.963Z,20.50
2019-04-23T01:31:43.396Z,10.00
2019-04-23T01:34:13.355Z,21.17
2019-04-23T01:39:11.361Z,11.70
2019-04-23T01:41:41.475Z,16.13
2019-04-23T01:44:05.253Z,14.97
2019-04-23T01:46:45.453Z,10.63
2019-04-23T01:49:07.868Z,19.07
2019-04-23T01:51:39.945Z,14.57
2019-04-23T01:54:06.929Z,12.67
2019-04-23T01:56:33.855Z,14.43
2019-04-23T01:59:05.108Z,15.87
2019-04-23T02:01:38.713Z,18.17
2019-04-23T02:04:10.020Z,10.60
2019-04-23T02:06:33.156Z,10.67
2019-04-23T02:09:10.973Z,13.13
2019-04-23T02:11:35.678Z,11.47
2019-04-23T02:14:05.354Z,10.53
2019-04-23T02:19:02.883Z,8.00
2019-04-23T02:21:35.101Z,13.37
2019-04-23T02:23:56.851Z,11.30
2019-04-23T02:26:34.138Z,9.30
2019-04-23T02:29:07.579Z,10.47
2019-04-23T02:34:24.642Z,11.87
2019-04-23T02:36:39.790Z,13.23
2019-04-23T02:41:46.529Z,12.27
2019-04-23T02:44:11.460Z,9.73
2019-04-23T02:46:31.891Z,17.33
2019-04-23T02:51:39.581Z,15.73
2019-04-23T02:54:23.645Z,16.07
2019-04-23T02:59:16.399Z,14.00
2019-04-23T03:01:53.963Z,12.80
2019-04-23T03:04:08.392Z,14.17
2019-04-23T03:06:58.522Z,10.87
2019-04-23T03:09:00.758Z,13.67
2019-04-23T03:14:12.078Z,12.43
2019-04-23T03:16:56.458Z,13.03
2019-04-23T03:22:01.619Z,9.17
2019-04-23T03:24:54.931Z,14.30
2019-04-23T03:27:28.858Z,17.17
2019-04-23T03:29:55.013Z,9.53
2019-04-23T03:40:00.484Z,12.23
2019-04-23T03:42:24.720Z,9.37
2019-04-23T03:50:04.467Z,16.83
2019-04-23T03:52:27.896Z,10.63
2019-04-23T03:57:18.250Z,9.37
2019-04-23T03:59:55.249Z,13.90
2019-04-23T04:02:35.304Z,10.90
2019-04-23T04:04:41.368Z,10.97
2019-04-23T04:07:22.628Z,10.03
2019-04-23T04:10:02.493Z,10.70
2019-04-23T04:14:48.886Z,12.83
2019-04-23T04:17:13.764Z,13.17
2019-04-23T04:19:47.869Z,13.00
2019-04-23T04:22:21.765Z,12.00
2019-04-23T04:24:41.731Z,10.20
2019-04-23T04:29:47.434Z,13.87
2019-04-23T04:32:14.837Z,13.90
2019-04-23T04:39:49.696Z,13.47
2019-04-23T04:44:41.083Z,11.20
2019-04-23T04:47:28.368Z,9.27
2019-04-23T04:49:54.696Z,9.40
2019-04-23T04:52:34.579Z,13.97
2019-04-23T04:54:39.312Z,8.57
2019-04-23T04:57:12.945Z,14.43
2019-04-23T04:59:39.674Z,10.40
2019-04-23T05:07:11.005Z,9.20
2019-04-23T05:09:42.081Z,10.40
2019-04-23T05:12:18.499Z,11.40
2019-04-23T05:14:33.696Z,9.60
2019-04-23T05:17:13.382Z,13.93
2019-04-23T05:19:35.085Z,9.07
2019-04-23T05:22:07.036Z,11.20
2019-04-23T05:24:30.659Z,14.83
2019-04-23T05:27:01.099Z,8.40
2019-04-23T05:29:34.185Z,14.70
2019-04-23T05:31:53.432Z,9.70
2019-04-23T05:34:29.389Z,12.70
2019-04-23T05:36:58.406Z,11.90
2019-04-23T05:39:31.275Z,16.60
2019-04-23T05:41:53.623Z,10.67
2019-04-23T05:44:35.035Z,10.90
2019-04-23T05:49:27.987Z,9.73
2019-04-23T05:51:55.179Z,14.53
2019-04-23T05:54:26.567Z,13.67
2019-04-23T05:56:51.995Z,8.83
2019-04-23T05:59:23.046Z,6.90
2019-04-23T06:01:57.024Z,11.97
2019-04-23T06:04:28.558Z,12.90
2019-04-23T06:09:20.391Z,11.10
2019-04-23T06:14:25.002Z,8.93
2019-04-23T06:16:55.376Z,9.47
2019-04-23T06:19:16.917Z,8.30
2019-04-23T06:22:00.360Z,8.27
2019-04-23T06:24:26.118Z,11.17
2019-04-23T06:26:58.712Z,10.43
2019-04-23T06:29:25.642Z,8.27
2019-04-23T06:31:48.775Z,11.60
2019-04-23T06:36:46.365Z,9.37
2019-04-23T06:39:26.804Z,10.60
2019-04-23T06:41:50.039Z,8.47
2019-04-23T06:49:28.459Z,10.33
2019-04-23T06:52:02.425Z,9.57
2019-04-23T06:54:19.147Z,12.60
2019-04-23T06:56:58.720Z,9.57
2019-04-23T06:59:19.487Z,8.10
2019-04-23T07:01:56.275Z,7.77
2019-04-23T07:04:17.254Z,9.73
2019-04-23T07:06:58.363Z,8.73
2019-04-23T07:09:20.511Z,8.30
2019-04-23T07:11:44.687Z,6.03
2019-04-23T07:14:28.769Z,6.03
2019-04-23T07:16:50.729Z,6.23
2019-04-23T07:19:34.197Z,7.00
2019-04-23T07:21:42.148Z,4.30
2019-04-23T07:26:55.795Z,6.43
2019-04-23T07:29:22.750Z,4.63
2019-04-23T07:31:50.975Z,8.07
2019-04-23T07:34:14.106Z,4.80
2019-04-23T07:36:47.323Z,7.03
2019-04-23T07:39:37.025Z,5.33
2019-04-23T07:48:10.989Z,6.47
2019-04-23T07:53:13.260Z,6.73
2019-04-23T07:55:58.952Z,6.30
2019-04-23T07:58:14.041Z,9.53
2019-04-23T08:00:41.408Z,5.47
2019-04-23T08:03:13.515Z,3.03
2019-04-23T08:05:37.687Z,3.67
2019-04-23T08:08:03.487Z,6.30
2019-04-23T08:10:35.763Z,4.70
2019-04-23T08:13:12.035Z,5.00
2019-04-23T08:15:34.692Z,5.57
2019-04-23T08:18:06.980Z,5.43
2019-04-23T08:23:44.001Z,2.10
2019-04-23T08:26:34.870Z,5.13
2019-04-23T08:29:05.891Z,2.47
2019-04-23T08:31:32.272Z,2.23
2019-04-23T08:34:05.546Z,2.57
2019-04-23T08:36:29.425Z,0.57
2019-04-23T08:38:57.520Z,1.00
2019-04-23T08:43:59.441Z,1.03
2019-04-23T08:47:08.652Z,2.43
2019-04-23T08:49:29.282Z,1.67
2019-04-23T08:52:04.419Z,1.30
2019-04-23T08:54:37.024Z,1.75
2019-04-23T08:59:31.611Z,0.60
2019-04-23T09:02:07.745Z,0.60
2019-04-23T09:04:28.831Z,1.03
2019-04-23T09:07:00.780Z,1.00
2019-04-23T09:09:27.871Z,4.17
2019-04-23T09:14:10.305Z,1.00
2019-04-23T09:16:52.602Z,0.50
2019-04-23T09:19:23.398Z,5.20
2019-04-23T09:21:53.630Z,1.13
2019-04-23T09:24:20.143Z,3.63
2019-04-23T09:26:50.493Z,1.67
2019-04-23T09:29:21.583Z,1.53
2019-04-23T09:32:22.427Z,1.03
2019-04-23T09:40:31.613Z,0.60
2019-04-23T09:43:02.416Z,2.52
2019-04-23T09:46:04.733Z,0.60
2019-04-23T09:48:41.111Z,2.98
2019-04-23T09:53:29.200Z,2.00
2019-04-23T09:55:53.638Z,1.45
2019-04-23T09:58:21.933Z,1.77
2019-04-23T10:01:23.810Z,2.77
2019-04-23T10:03:38.524Z,0.80
2019-04-23T10:06:03.404Z,0.60
2019-04-23T10:08:27.943Z,5.03
2019-04-23T10:10:51.357Z,2.07
2019-04-23T10:13:19.983Z,0.72
2019-04-23T10:15:49.658Z,2.02
2019-04-23T10:18:18.307Z,1.75
2019-04-23T10:20:46.757Z,0.55
2019-04-23T10:23:15.882Z,0.62
2019-04-23T10:25:43.781Z,0.50
2019-04-23T10:28:29.646Z,0.65
2019-04-23T10:30:58.793Z,0.57
2019-04-23T10:33:27.635Z,0.75
2019-04-23T10:36:02.697Z,0.50
2019-04-23T10:38:26.720Z,0.53
2019-04-23T10:40:56.028Z,2.25
2019-04-23T10:43:25.045Z,2.30
2019-04-23T10:46:21.787Z,2.40
2019-04-23T10:52:04.937Z,0.82
2019-04-23T10:54:35.853Z,0.90
2019-04-23T10:57:08.562Z,0.93
2019-04-23T10:59:39.819Z,1.92
2019-04-23T11:02:24.525Z,4.37
2019-04-23T11:04:49.105Z,4.12
2019-04-23T11:12:23.674Z,3.90
2019-04-23T11:17:19.470Z,1.90
2019-04-23T11:22:32.915Z,1.50
2019-04-23T11:27:14.744Z,1.05
2019-04-23T11:29:40.490Z,3.62
2019-04-23T11:32:32.026Z,0.70
2019-04-23T11:35:04.830Z,3.52
2019-04-23T11:38:17.111Z,3.10
2019-04-23T11:42:11.551Z,1.35
2019-04-23T11:51:05.445Z,0.68
2019-04-23T11:54:35.580Z,0.80
2019-04-23T12:02:32.778Z,3.05
2019-04-23T12:05:32.325Z,1.60
2019-04-23T12:08:07.919Z,0.93
2019-04-23T12:13:20.427Z,1.12
2019-04-23T12:15:46.428Z,2.77
2019-04-23T12:18:18.112Z,1.65
2019-04-23T12:20:39.807Z,0.50
2019-04-23T12:23:31.625Z,1.72
2019-04-23T12:28:23.521Z,1.17
2019-04-23T12:31:01.792Z,1.27
2019-04-23T12:33:41.157Z,0.85
2019-04-23T12:35:47.152Z,0.30
2019-04-23T12:40:44.303Z,4.12
2019-04-23T12:45:42.249Z,1.45
2019-04-23T12:48:31.262Z,2.17
2019-04-23T12:50:51.664Z,1.10
2019-04-23T12:53:23.545Z,0.50
2019-04-23T12:58:14.545Z,0.40
2019-04-23T13:03:18.941Z,1.07
2019-04-23T13:05:34.107Z,0.40
2019-04-23T13:08:33.927Z,1.35
2019-04-23T13:10:41.898Z,0.80
2019-04-23T13:15:53.356Z,3.45
2019-04-23T13:18:09.456Z,2.22
2019-04-23T13:20:51.214Z,0.82
2019-04-23T13:28:21.228Z,2.17
2019-04-23T13:30:56.504Z,0.60
2019-04-23T13:33:30.156Z,0.45
2019-04-23T13:38:32.140Z,2.35
2019-04-23T13:40:57.122Z,0.68
2019-04-23T13:43:29.747Z,0.70
2019-04-23T13:48:14.711Z,0.40
2019-04-23T13:53:36.933Z,0.53
2019-04-23T13:55:49.094Z,0.43
2019-04-23T13:58:22.591Z,4.58
2019-04-23T14:01:01.326Z,0.80
2019-04-23T14:03:30.183Z,1.02
2019-04-23T14:11:10.689Z,9.25
2019-04-23T14:13:44.015Z,8.35
2019-04-23T14:21:17.154Z,3.92
2019-04-23T14:23:52.008Z,0.93
2019-04-23T14:31:07.783Z,0.35
2019-04-23T14:38:41.124Z,12.73
2019-04-23T14:41:09.584Z,0.50
2019-04-23T14:43:40.037Z,0.85
2019-04-23T14:46:34.868Z,3.22
2019-04-23T14:48:50.014Z,8.23
2019-04-23T14:53:54.095Z,1.45
2019-04-23T14:56:20.166Z,0.85
2019-04-23T14:58:50.631Z,1.37
2019-04-23T15:09:00.308Z,1.40
2019-04-23T15:16:39.411Z,4.72
2019-04-23T15:21:47.138Z,1.60
2019-04-23T15:25:13.538Z,16.20
2019-04-23T15:28:03.570Z,1.72
2019-04-23T15:31:02.336Z,1.02
2019-04-23T15:34:57.541Z,1.40
2019-04-23T15:40:59.030Z,3.47
2019-04-23T15:43:30.689Z,0.68
2019-04-23T15:46:05.982Z,0.88
2019-04-23T15:51:06.222Z,5.80
2019-04-23T15:53:34.817Z,5.72
2019-04-23T15:56:18.297Z,0.70
2019-04-23T15:59:04.309Z,1.32
2019-04-23T16:03:21.492Z,6.40
2019-04-23T16:05:50.981Z,5.50
2019-04-23T16:09:01.644Z,2.43
2019-04-23T16:11:33.298Z,4.40
2019-04-23T16:14:07.640Z,1.37
2019-04-23T16:17:02.001Z,2.13
2019-04-23T16:19:29.225Z,5.97
2019-04-23T16:22:04.577Z,1.50
2019-04-23T16:27:42.593Z,2.98
2019-04-23T16:30:19.076Z,5.78
2019-04-23T16:35:58.582Z,2.37
2019-04-23T16:38:32.542Z,3.90
2019-04-23T16:40:53.874Z,2.20
2019-04-23T16:43:21.309Z,7.17
2019-04-23T16:46:03.156Z,3.37
2019-04-23T16:51:12.280Z,1.83
2019-04-23T16:53:27.514Z,4.47
2019-04-23T16:56:04.183Z,3.00
2019-04-23T16:58:36.686Z,6.13
2019-04-23T17:01:05.533Z,6.33
2019-04-23T17:03:31.868Z,3.80
2019-04-23T17:08:42.569Z,5.40
2019-04-23T17:13:25.563Z,5.47
2019-04-23T17:16:32.344Z,3.27
2019-04-23T17:19:11.284Z,6.83
2019-04-23T17:24:15.407Z,5.83
2019-04-23T17:29:09.817Z,2.80
2019-04-23T17:34:09.053Z,7.80
2019-04-23T17:42:56.962Z,10.73
2019-04-23T17:48:13.390Z,4.83
2019-04-23T17:56:01.123Z,11.93
2019-04-23T17:58:23.373Z,8.20
2019-04-23T18:01:03.652Z,4.07
2019-04-23T18:03:28.216Z,7.10
2019-04-23T18:06:03.539Z,4.57
2019-04-23T18:08:23.245Z,6.97
2019-04-23T18:11:05.842Z,6.27
2019-04-23T18:13:28.267Z,7.00
2019-04-23T18:16:01.662Z,7.70
2019-04-23T18:18:32.788Z,8.67
2019-04-23T18:21:21.342Z,10.23
2019-04-23T18:24:10.451Z,9.07
2019-04-23T18:29:43.837Z,10.80
2019-04-23T18:32:17.036Z,6.63
2019-04-23T18:35:02.409Z,6.83
2019-04-23T18:37:16.980Z,9.70
2019-04-23T18:39:43.648Z,8.10
2019-04-23T18:42:23.149Z,6.97
2019-04-23T18:44:42.028Z,5.60
2019-04-23T18:47:17.382Z,8.03
2019-04-23T18:49:42.561Z,6.73
2019-04-23T18:52:14.541Z,7.90
2019-04-23T18:54:40.699Z,9.20
2019-04-23T18:59:47.172Z,7.33
2019-04-23T19:02:45.341Z,4.37
2019-04-23T19:08:01.068Z,7.07
2019-04-23T19:10:48.638Z,6.97
2019-04-23T19:13:20.294Z,3.73
2019-04-23T19:18:23.956Z,5.83
2019-04-23T19:25:53.537Z,9.97
2019-04-23T19:31:10.327Z,8.27
2019-04-23T19:33:49.189Z,4.27
2019-04-23T19:36:17.228Z,8.23
2019-04-23T19:38:58.074Z,8.33
2019-04-23T19:41:08.522Z,3.70
2019-04-23T19:43:49.476Z,13.10
2019-04-23T19:46:41.885Z,5.57
2019-04-23T19:51:20.860Z,5.07
2019-04-23T19:56:31.948Z,3.57
2019-04-23T19:58:48.426Z,4.37
2019-04-23T20:03:48.662Z,2.77
2019-04-23T20:06:07.908Z,4.50
2019-04-23T20:09:02.529Z,4.60
2019-04-23T20:11:07.687Z,3.70
2019-04-23T20:13:47.146Z,6.40
2019-04-23T20:21:04.057Z,4.80
2019-04-23T20:29:16.273Z,4.77
2019-04-23T20:33:12.583Z,4.83
2019-04-23T20:36:48.145Z,7.73
2019-04-23T20:39:17.299Z,6.10
2019-04-23T20:42:02.272Z,4.23
2019-04-23T20:44:37.418Z,3.87
2019-04-23T20:47:03.360Z,4.47
2019-04-23T20:49:31.836Z,5.20
2019-04-23T20:52:00.744Z,7.07
2019-04-23T20:54:27.008Z,6.43
2019-04-23T20:57:00.454Z,5.40
2019-04-23T20:59:32.045Z,8.20
2019-04-23T21:02:15.170Z,6.90
2019-04-23T21:04:51.135Z,9.03
2019-04-23T21:07:07.259Z,9.73
2019-04-23T21:09:51.493Z,10.87
2019-04-23T21:12:14.272Z,10.33
2019-04-23T21:15:01.421Z,9.77
2019-04-23T21:17:07.421Z,23.20
2019-04-23T21:19:52.393Z,13.23
2019-04-23T21:22:13.946Z,13.47
2019-04-23T21:24:43.060Z,9.87
2019-04-23T21:27:21.689Z,13.53
2019-04-23T21:29:49.979Z,12.63
2019-04-23T21:32:14.719Z,10.50
2019-04-23T21:34:46.955Z,14.33
2019-04-23T21:37:23.367Z,11.80
2019-04-23T21:40:19.425Z,11.23
2019-04-23T21:42:40.781Z,11.13
2019-04-23T21:45:02.671Z,13.17
2019-04-23T21:47:38.612Z,14.10
2019-04-23T21:50:08.437Z,15.93
2019-04-23T21:52:34.813Z,10.33
2019-04-23T21:55:07.433Z,14.07
2019-04-23T21:57:41.818Z,10.83
2019-04-23T21:59:59.345Z,11.20
2019-04-23T22:02:28.746Z,15.97
2019-04-23T22:05:01.265Z,10.33
2019-04-23T22:07:38.915Z,21.77
2019-04-23T22:10:05.933Z,12.30
2019-04-23T22:12:54.658Z,14.80
2019-04-23T22:20:07.527Z,12.50
2019-04-23T22:22:37.325Z,13.83
2019-04-23T22:24:55.586Z,9.07
2019-04-23T22:27:28.304Z,10.73
2019-04-23T22:29:54.327Z,13.50
2019-04-23T22:32:30.804Z,13.57
2019-04-23T22:35:03.541Z,13.37
2019-04-23T22:37:24.039Z,12.70
2019-04-23T22:39:52.391Z,15.10
2019-04-23T22:42:46.628Z,10.77
2019-04-23T22:45:07.145Z,12.90
2019-04-23T22:47:28.603Z,17.73
2019-04-23T22:50:02.258Z,9.63
2019-04-23T22:57:45.081Z,12.70
2019-04-23T23:00:08.438Z,9.63
2019-04-23T23:02:47.651Z,10.00
2019-04-23T23:05:53.001Z,10.67
2019-04-23T23:07:39.667Z,9.80
2019-04-23T23:10:06.977Z,12.37
2019-04-23T23:12:45.077Z,10.27
2019-04-23T23:15:10.229Z,10.90
2019-04-23T23:17:42.442Z,11.37
2019-04-23T23:22:27.802Z,12.63
2019-04-23T23:25:09.857Z,13.03
2019-04-23T23:27:29.594Z,11.67
2019-04-23T23:30:04.975Z,14.50
2019-04-23T23:32:30.981Z,12.27
2019-04-23T23:37:29.967Z,13.07
2019-04-23T23:40:04.992Z,9.57
2019-04-23T23:42:28.185Z,9.27
2019-04-23T23:45:05.089Z,12.13
2019-04-23T23:47:18.242Z,12.07
2019-04-23T23:50:00.941Z,8.97
2019-04-23T23:52:30.868Z,10.23
2019-04-23T23:55:01.057Z,11.00
